createdAt,value
2023-01-28T00:00:55.815Z,101996.63
2023-01-28T00:03:26.287Z,101996.01
2023-01-28T00:06:05.288Z,101994.50
2023-01-28T00:08:33.921Z,101997.11
2023-01-28T00:11:04.805Z,101998.98
2023-01-28T00:13:33.883Z,102001.74
2023-01-28T00:16:08.577Z,102004.12
2023-01-28T00:18:37.785Z,102001.20
2023-01-28T00:21:12.644Z,102006.25
2023-01-28T00:23:43.297Z,102004.23
2023-01-28T00:26:14.013Z,102003.86
2023-01-28T00:28:44.116Z,102005.88
2023-01-28T00:31:18.591Z,102002.09
2023-01-28T00:33:48.465Z,102002.92
2023-01-28T00:36:18.183Z,102007.73
2023-01-28T00:38:54.805Z,102005.31
2023-01-28T00:41:25.798Z,102002.20
2023-01-28T00:43:54.564Z,102000.63
2023-01-28T00:46:23.663Z,102002.16
2023-01-28T00:48:52.601Z,101998.68
2023-01-28T00:51:21.454Z,101997.13
2023-01-28T00:53:50.541Z,101996.92
2023-01-28T00:56:19.878Z,101998.45
2023-01-28T00:58:48.075Z,101998.19
2023-01-28T01:01:27.747Z,101996.73
2023-01-28T01:04:03.154Z,101993.58
2023-01-28T01:06:35.650Z,101991.14
2023-01-28T01:09:08.109Z,101987.98
2023-01-28T01:11:37.058Z,101985.25
2023-01-28T01:14:07.347Z,101991.66
2023-01-28T01:16:36.409Z,101989.84
2023-01-28T01:19:04.852Z,101994.52
2023-01-28T01:21:33.012Z,101997.34
2023-01-28T01:24:01.405Z,101993.45
2023-01-28T01:26:30.116Z,101993.36
2023-01-28T01:28:58.899Z,101998.16
2023-01-28T01:31:27.148Z,101993.99
2023-01-28T01:33:55.317Z,101993.64
2023-01-28T01:36:23.734Z,101993.50
2023-01-28T01:38:55.554Z,101994.67
2023-01-28T01:41:30.987Z,101998.60
2023-01-28T01:44:01.714Z,101999.90
2023-01-28T01:46:44.441Z,102001.33
2023-01-28T01:49:21.378Z,102000.27
2023-01-28T01:51:54.531Z,102002.47
2023-01-28T01:54:27.514Z,101996.05
2023-01-28T01:57:00.205Z,101990.45
2023-01-28T01:59:30.888Z,101990.79
2023-01-28T02:02:03.727Z,101985.83
2023-01-28T02:04:36.667Z,101986.67
2023-01-28T02:07:06.077Z,101981.98
2023-01-28T02:09:36.716Z,101984.89
2023-01-28T02:12:13.934Z,101982.57
2023-01-28T02:14:50.158Z,101987.41
2023-01-28T02:17:18.855Z,101985.93
2023-01-28T02:20:02.365Z,101988.84
2023-01-28T02:22:39.956Z,101988.70
2023-01-28T02:25:20.161Z,101988.39
2023-01-28T02:28:13.067Z,101989.78
2023-01-28T02:31:22.031Z,101985.55
2023-01-28T02:34:02.270Z,101982.60
2023-01-28T02:36:41.299Z,101982.83
2023-01-28T02:39:20.730Z,101980.61
2023-01-28T02:42:13.675Z,101979.74
2023-01-28T02:44:42.383Z,101979.03
2023-01-28T02:47:31.094Z,101977.65
2023-01-28T02:50:04.805Z,101975.84
2023-01-28T02:53:01.150Z,101974.73
2023-01-28T02:55:54.204Z,101976.39
2023-01-28T02:58:41.969Z,101978.26
2023-01-28T03:01:25.418Z,101979.34
2023-01-28T03:03:59.534Z,101976.72
2023-01-28T03:06:51.163Z,101977.67
2023-01-28T03:09:22.566Z,101973.41
2023-01-28T03:12:24.534Z,101971.20
2023-01-28T03:15:15.834Z,101972.23
2023-01-28T03:18:17.551Z,101971.92
2023-01-28T03:21:13.693Z,101974.08
2023-01-28T03:24:09.247Z,101974.68
2023-01-28T03:27:13.889Z,101972.61
2023-01-28T03:30:03.960Z,101964.41
2023-01-28T03:32:53.170Z,101962.77
2023-01-28T03:35:42.805Z,101964.80
2023-01-28T03:38:23.619Z,101961.73
2023-01-28T03:40:57.293Z,101956.23
2023-01-28T03:43:26.281Z,101956.79
2023-01-28T03:45:55.701Z,101956.77
2023-01-28T03:48:26.373Z,101957.02
2023-01-28T03:50:56.479Z,101961.79
2023-01-28T03:53:24.929Z,101962.17
2023-01-28T03:55:54.615Z,101959.30
2023-01-28T03:58:46.553Z,101965.06
2023-01-28T04:01:15.177Z,101970.00
2023-01-28T04:03:43.927Z,101963.78
2023-01-28T04:06:16.561Z,101959.25
2023-01-28T04:09:17.522Z,101961.58
2023-01-28T04:11:58.348Z,101958.77
2023-01-28T04:14:35.278Z,101961.34
2023-01-28T04:17:10.832Z,101961.75
2023-01-28T04:19:40.419Z,101964.92
2023-01-28T04:22:11.587Z,101964.55
2023-01-28T04:24:41.629Z,101965.24
2023-01-28T04:27:10.150Z,101963.55
2023-01-28T04:29:38.479Z,101965.95
2023-01-28T04:32:29.490Z,101964.04
2023-01-28T04:35:12.549Z,101960.75
2023-01-28T04:38:07.000Z,101956.75
2023-01-28T04:40:54.805Z,101955.73
2023-01-28T04:43:28.630Z,101953.17
2023-01-28T04:46:18.140Z,101950.67
2023-01-28T04:48:56.836Z,101950.16
2023-01-28T04:51:43.943Z,101956.51
2023-01-28T04:54:33.364Z,101958.95
2023-01-28T04:57:04.048Z,101960.48
2023-01-28T04:59:33.056Z,101955.13
2023-01-28T05:02:02.844Z,101955.29
2023-01-28T05:04:31.647Z,101957.34
2023-01-28T05:06:59.826Z,101961.65
2023-01-28T05:09:33.340Z,101962.34
2023-01-28T05:12:02.001Z,101962.89
2023-01-28T05:14:32.503Z,101965.90
2023-01-28T05:17:09.680Z,101965.23
2023-01-28T05:19:37.994Z,101965.79
2023-01-28T05:22:11.499Z,101962.98
2023-01-28T05:24:43.888Z,101965.30
2023-01-28T05:27:12.554Z,101964.47
2023-01-28T05:29:40.902Z,101968.64
2023-01-28T05:32:09.601Z,101970.80
2023-01-28T05:34:37.923Z,101962.80
2023-01-28T05:37:11.641Z,101966.32
2023-01-28T05:39:40.793Z,101964.88
2023-01-28T05:42:09.625Z,101966.05
2023-01-28T05:44:43.486Z,101964.65
2023-01-28T05:47:18.146Z,101966.95
2023-01-28T05:49:46.661Z,101968.46
2023-01-28T05:52:33.454Z,101972.89
2023-01-28T05:55:01.932Z,101968.36
2023-01-28T05:57:30.492Z,101960.89
2023-01-28T05:59:58.742Z,101953.85
2023-01-28T06:02:27.295Z,101960.55
2023-01-28T06:04:58.314Z,101967.29
2023-01-28T06:07:26.471Z,101968.04
2023-01-28T06:09:54.731Z,101963.43
2023-01-28T06:19:36.408Z,101954.77
2023-01-28T06:22:04.915Z,101955.09
2023-01-28T06:24:33.966Z,101953.41
2023-01-28T06:27:02.191Z,101960.02
2023-01-28T06:29:30.757Z,101956.48
2023-01-28T06:31:59.761Z,101956.00
2023-01-28T06:34:28.023Z,101960.84
2023-01-28T06:36:56.261Z,101965.37
2023-01-28T06:39:24.376Z,101965.91
2023-01-28T06:41:52.674Z,101966.88
2023-01-28T06:44:20.819Z,101969.10
2023-01-28T06:46:48.848Z,101973.34
2023-01-28T06:49:17.255Z,101975.17
2023-01-28T06:51:45.458Z,101978.73
2023-01-28T06:54:13.849Z,101978.38
2023-01-28T06:56:42.331Z,101972.73
2023-01-28T06:59:10.383Z,101966.73
2023-01-28T07:01:38.722Z,101973.58
2023-01-28T07:04:07.362Z,101978.47
2023-01-28T07:06:35.455Z,101978.59
2023-01-28T07:09:03.981Z,101973.77
2023-01-28T07:11:32.466Z,101982.67
2023-01-28T07:14:00.648Z,101978.16
2023-01-28T07:16:28.750Z,101975.98
2023-01-28T07:18:57.100Z,101978.77
2023-01-28T07:21:25.172Z,101978.84
2023-01-28T07:23:53.305Z,101976.98
2023-01-28T07:26:21.837Z,101974.83
2023-01-28T07:28:50.879Z,101976.10
2023-01-28T07:31:18.988Z,101981.91
2023-01-28T07:33:47.125Z,101984.20
2023-01-28T07:36:15.444Z,101981.05
2023-01-28T07:38:43.439Z,101984.17
2023-01-28T07:41:11.680Z,101985.66
2023-01-28T07:43:40.076Z,101987.28
2023-01-28T07:46:08.434Z,101988.54
2023-01-28T07:48:36.598Z,101986.98
2023-01-28T07:51:04.906Z,101988.84
2023-01-28T07:53:32.968Z,101986.23
2023-01-28T07:56:02.374Z,101982.27
2023-01-28T07:58:30.632Z,101981.54
2023-01-28T08:01:01.804Z,101976.75
2023-01-28T08:03:30.188Z,101974.69
2023-01-28T08:05:58.554Z,101969.32
2023-01-28T08:08:27.457Z,101969.34
2023-01-28T08:10:55.708Z,101961.20
2023-01-28T08:13:23.993Z,101957.02
2023-01-28T08:15:56.409Z,101959.50
2023-01-28T08:18:24.705Z,101962.38
2023-01-28T08:21:00.146Z,101962.06
2023-01-28T08:23:29.226Z,101962.97
2023-01-28T08:25:59.256Z,101968.41
2023-01-28T08:28:27.790Z,101968.67
2023-01-28T08:30:56.161Z,101970.61
2023-01-28T08:33:24.320Z,101974.24
2023-01-28T08:35:52.700Z,101984.09
2023-01-28T08:38:20.959Z,101980.39
2023-01-28T08:40:55.794Z,101976.59
2023-01-28T08:43:24.048Z,101970.90
2023-01-28T08:45:52.279Z,101974.45
2023-01-28T08:48:20.768Z,101981.34
2023-01-28T08:50:50.888Z,101979.80
2023-01-28T08:53:20.472Z,101975.34
2023-01-28T08:55:48.700Z,101981.84
2023-01-28T08:58:18.690Z,101985.08
2023-01-28T09:00:47.809Z,101982.11
2023-01-28T09:03:17.397Z,101984.02
2023-01-28T09:05:45.831Z,101986.23
2023-01-28T09:08:15.382Z,101982.79
2023-01-28T09:10:44.357Z,101986.66
2023-01-28T09:13:15.798Z,101986.30
2023-01-28T09:15:44.095Z,101987.30
2023-01-28T09:18:12.226Z,101985.38
2023-01-28T09:20:40.586Z,101985.04
2023-01-28T09:23:09.188Z,101986.19
2023-01-28T09:25:37.552Z,101991.63
2023-01-28T09:28:06.162Z,101988.61
2023-01-28T09:30:37.087Z,101988.39
2023-01-28T09:33:06.729Z,101993.74
2023-01-28T09:35:36.077Z,101998.09
2023-01-28T09:38:04.252Z,101994.35
2023-01-28T09:40:42.348Z,101989.45
2023-01-28T09:43:31.165Z,101992.89
2023-01-28T09:46:02.962Z,101993.48
2023-01-28T09:48:42.897Z,101986.91
2023-01-28T09:51:29.863Z,101983.81
2023-01-28T09:54:05.215Z,101981.08
2023-01-28T09:56:40.485Z,101980.27
2023-01-28T09:59:23.359Z,101980.16
2023-01-28T10:02:47.003Z,101981.61
2023-01-28T10:05:26.127Z,101973.41
2023-01-28T10:08:00.176Z,101969.65
2023-01-28T10:10:36.170Z,101969.22
2023-01-28T10:13:54.219Z,101976.67
2023-01-28T10:16:34.844Z,101972.86
2023-01-28T10:19:29.373Z,101968.86
2023-01-28T10:22:14.933Z,101971.70
2023-01-28T10:24:49.887Z,101967.52
2023-01-28T10:27:22.655Z,101961.88
2023-01-28T10:29:53.149Z,101957.07
2023-01-28T10:32:38.641Z,101952.98
2023-01-28T10:35:06.943Z,101950.80
2023-01-28T10:37:37.897Z,101949.39
2023-01-28T10:40:13.828Z,101949.65
2023-01-28T10:42:43.126Z,101940.95
2023-01-28T10:45:43.116Z,101938.91
2023-01-28T10:48:26.853Z,101940.69
2023-01-28T10:50:59.765Z,101933.27
2023-01-28T10:53:34.264Z,101924.27
2023-01-28T10:56:04.016Z,101921.27
2023-01-28T10:58:36.227Z,101924.08
2023-01-28T11:01:07.389Z,101925.86
2023-01-28T11:03:35.842Z,101926.75
2023-01-28T11:06:04.147Z,101926.76
2023-01-28T11:08:43.981Z,101921.64
2023-01-28T11:11:15.732Z,101911.36
2023-01-28T11:13:51.962Z,101921.07
2023-01-28T11:16:21.144Z,101927.70
2023-01-28T11:18:55.660Z,101923.72
2023-01-28T11:21:29.505Z,101917.46
2023-01-28T11:24:02.672Z,101918.70
2023-01-28T11:26:39.689Z,101918.30
2023-01-28T11:29:23.159Z,101914.42
2023-01-28T11:31:51.868Z,101903.77
2023-01-28T11:34:21.026Z,101898.47
2023-01-28T11:37:04.060Z,101895.75
2023-01-28T11:39:32.284Z,101895.78
2023-01-28T11:42:12.238Z,101900.28
2023-01-28T11:44:40.686Z,101895.98
2023-01-28T11:47:44.647Z,101894.64
2023-01-28T11:50:54.041Z,101899.98
2023-01-28T11:53:40.586Z,101900.86
2023-01-28T11:56:12.025Z,101896.61
2023-01-28T11:59:02.280Z,101885.45
2023-01-28T12:01:42.049Z,101882.34
2023-01-28T12:04:25.840Z,101880.53
2023-01-28T12:07:26.541Z,101887.27
2023-01-28T12:10:18.956Z,101879.95
2023-01-28T12:13:10.001Z,101874.96
2023-01-28T12:15:53.556Z,101870.42
2023-01-28T12:18:31.087Z,101868.19
2023-01-28T12:21:10.695Z,101860.09
2023-01-28T12:23:51.367Z,101854.48
2023-01-28T12:26:35.884Z,101851.56
2023-01-28T12:29:34.583Z,101851.53
2023-01-28T12:32:39.402Z,101844.81
2023-01-28T12:35:18.718Z,101848.59
2023-01-28T12:38:03.327Z,101851.95
2023-01-28T12:40:45.183Z,101841.89
2023-01-28T12:43:24.219Z,101830.05
2023-01-28T12:45:57.831Z,101830.93
2023-01-28T12:48:41.757Z,101832.59
2023-01-28T12:51:23.486Z,101829.79
2023-01-28T12:54:04.866Z,101823.43
2023-01-28T12:56:43.438Z,101826.77
2023-01-28T12:59:21.254Z,101815.33
2023-01-28T13:01:55.477Z,101813.20
2023-01-28T13:05:01.234Z,101810.30
2023-01-28T13:07:44.481Z,101803.89
2023-01-28T13:10:42.214Z,101799.42
2023-01-28T13:13:30.074Z,101793.34
2023-01-28T13:15:58.642Z,101790.20
2023-01-28T13:18:33.813Z,101787.77
2023-01-28T13:21:06.407Z,101782.84
2023-01-28T13:23:39.899Z,101781.24
2023-01-28T13:26:21.894Z,101782.32
2023-01-28T13:28:53.239Z,101786.04
2023-01-28T13:31:23.963Z,101778.69
2023-01-28T13:33:55.011Z,101779.82
2023-01-28T13:36:29.137Z,101780.11
2023-01-28T13:39:02.784Z,101780.89
2023-01-28T13:41:40.436Z,101787.67
2023-01-28T13:44:32.111Z,101789.23
2023-01-28T13:47:09.206Z,101786.02
2023-01-28T13:49:47.053Z,101783.66
2023-01-28T13:52:20.421Z,101779.73
2023-01-28T13:54:55.994Z,101776.35
2023-01-28T13:57:58.044Z,101768.21
2023-01-28T14:01:13.135Z,101769.39
2023-01-28T14:04:05.663Z,101769.96
2023-01-28T14:07:11.008Z,101763.94
2023-01-28T14:09:49.590Z,101753.70
2023-01-28T14:12:36.850Z,101753.02
2023-01-28T14:15:32.807Z,101754.75
2023-01-28T14:18:01.526Z,101750.06
2023-01-28T14:20:37.909Z,101748.38
2023-01-28T14:23:16.763Z,101745.65
2023-01-28T14:25:48.138Z,101746.58
2023-01-28T14:28:32.718Z,101738.63
2023-01-28T14:31:27.436Z,101732.37
2023-01-28T14:34:14.645Z,101735.12
2023-01-28T14:36:45.952Z,101738.04
2023-01-28T14:39:19.722Z,101737.13
2023-01-28T14:41:51.089Z,101744.65
2023-01-28T14:44:41.008Z,101752.02
2023-01-28T14:47:46.324Z,101752.32
2023-01-28T14:50:26.587Z,101758.69
2023-01-28T14:53:17.667Z,101760.52
2023-01-28T14:56:23.552Z,101747.23
2023-01-28T14:59:04.907Z,101750.73
2023-01-28T15:01:33.215Z,101755.98
2023-01-28T15:04:01.458Z,101759.68
2023-01-28T15:06:36.090Z,101775.58
2023-01-28T15:09:09.411Z,101780.09
2023-01-28T15:11:41.435Z,101771.87
2023-01-28T15:14:36.435Z,101773.52
2023-01-28T15:17:04.901Z,101781.27
2023-01-28T15:19:36.011Z,101780.82
2023-01-28T15:22:07.119Z,101788.20
2023-01-28T15:24:36.272Z,101796.23
2023-01-28T15:27:04.445Z,101800.96
2023-01-28T15:29:35.546Z,101798.40
2023-01-28T15:32:05.631Z,101803.39
2023-01-28T15:34:33.715Z,101800.02
2023-01-28T15:37:02.204Z,101797.55
2023-01-28T15:39:30.549Z,101801.50
2023-01-28T15:42:03.407Z,101799.14
2023-01-28T15:44:35.155Z,101791.79
2023-01-28T15:47:14.601Z,101795.73
2023-01-28T15:49:47.124Z,101800.41
2023-01-28T15:52:15.479Z,101805.05
2023-01-28T15:54:48.649Z,101803.00
2023-01-28T15:57:21.081Z,101782.65
2023-01-28T15:59:51.337Z,101778.02
2023-01-28T16:02:22.681Z,101781.93
2023-01-28T16:05:01.885Z,101782.64
2023-01-28T16:07:43.164Z,101774.70
2023-01-28T16:10:21.779Z,101775.22
2023-01-28T16:12:53.736Z,101772.64
2023-01-28T16:15:22.412Z,101768.67
2023-01-28T16:17:52.465Z,101771.08
2023-01-28T16:20:30.196Z,101777.61
2023-01-28T16:23:02.375Z,101772.20
2023-01-28T16:25:33.027Z,101766.14
2023-01-28T16:28:02.719Z,101766.45
2023-01-28T16:30:30.863Z,101775.52
2023-01-28T16:33:00.380Z,101774.98
2023-01-28T16:35:47.323Z,101765.67
2023-01-28T16:38:18.992Z,101751.42
2023-01-28T16:40:47.876Z,101748.80
2023-01-28T16:43:17.686Z,101747.56
2023-01-28T16:45:46.383Z,101739.80
2023-01-28T16:48:14.685Z,101738.89
2023-01-28T16:50:43.512Z,101736.98
2023-01-28T16:53:20.080Z,101742.44
2023-01-28T16:55:52.099Z,101746.98
2023-01-28T16:58:24.849Z,101748.11
2023-01-28T17:00:53.470Z,101746.36
2023-01-28T17:03:23.425Z,101737.89
2023-01-28T17:05:51.782Z,101741.29
2023-01-28T17:08:19.871Z,101743.32
2023-01-28T17:10:55.118Z,101748.65
2023-01-28T17:13:23.294Z,101740.39
2023-01-28T17:15:52.913Z,101736.05
2023-01-28T17:18:21.175Z,101741.84
2023-01-28T17:20:49.613Z,101743.02
2023-01-28T17:23:23.079Z,101746.41
2023-01-28T17:25:51.217Z,101741.73
2023-01-28T17:28:19.843Z,101729.33
2023-01-28T17:30:48.045Z,101715.88
2023-01-28T17:33:16.165Z,101712.70
2023-01-28T17:35:47.333Z,101711.48
2023-01-28T17:38:17.254Z,101710.40
2023-01-28T17:40:45.548Z,101717.71
2023-01-28T17:43:13.629Z,101718.17
2023-01-28T17:45:41.867Z,101725.98
2023-01-28T17:48:10.986Z,101721.81
2023-01-28T17:50:40.308Z,101721.94
2023-01-28T17:53:10.392Z,101718.27
2023-01-28T17:55:38.733Z,101718.23
2023-01-28T17:58:06.863Z,101719.84
2023-01-28T18:00:34.953Z,101714.30
2023-01-28T18:03:03.550Z,101703.47
2023-01-28T18:05:31.818Z,101693.80
2023-01-28T18:08:00.136Z,101687.17
2023-01-28T18:10:28.536Z,101678.70
2023-01-28T18:12:56.911Z,101681.06
2023-01-28T18:15:25.363Z,101682.39
2023-01-28T18:17:53.471Z,101675.00
2023-01-28T18:20:21.667Z,101676.54
2023-01-28T18:22:49.747Z,101674.34
2023-01-28T18:25:19.149Z,101671.26
2023-01-28T18:27:47.694Z,101672.63
2023-01-28T18:30:16.536Z,101665.45
2023-01-28T18:32:45.086Z,101657.59
2023-01-28T18:35:13.511Z,101657.11
2023-01-28T18:37:42.147Z,101663.15
2023-01-28T18:40:11.396Z,101662.45
2023-01-28T18:42:39.864Z,101662.55
2023-01-28T18:45:08.419Z,101673.68
2023-01-28T18:47:36.681Z,101672.30
2023-01-28T18:50:05.436Z,101673.14
2023-01-28T18:52:33.528Z,101682.96
2023-01-28T18:55:01.733Z,101695.70
2023-01-28T18:57:30.042Z,101704.84
2023-01-28T18:59:58.249Z,101708.08
2023-01-28T19:02:26.472Z,101698.66
2023-01-28T19:04:57.927Z,101682.23
2023-01-28T19:07:26.265Z,101681.17
2023-01-28T19:09:54.532Z,101682.89
2023-01-28T19:12:23.321Z,101682.94
2023-01-28T19:14:51.607Z,101681.45
2023-01-28T19:17:19.844Z,101686.63
2023-01-28T19:19:48.134Z,101686.63
2023-01-28T19:22:17.191Z,101686.48
2023-01-28T19:24:45.315Z,101682.63
2023-01-28T19:27:13.730Z,101685.38
2023-01-28T19:29:42.256Z,101689.63
2023-01-28T19:32:10.349Z,101690.17
2023-01-28T19:34:38.382Z,101679.67
2023-01-28T19:37:06.576Z,101676.08
2023-01-28T19:39:35.435Z,101669.92
2023-01-28T19:42:03.650Z,101666.02
2023-01-28T19:44:33.022Z,101682.39
2023-01-28T19:47:02.366Z,101680.22
2023-01-28T19:49:31.105Z,101675.44
2023-01-28T19:51:59.405Z,101670.89
2023-01-28T19:54:27.755Z,101664.42
2023-01-28T19:56:56.034Z,101668.23
2023-01-28T19:59:24.281Z,101671.45
2023-01-28T20:01:52.520Z,101670.98
2023-01-28T20:04:20.875Z,101664.35
2023-01-28T20:06:50.035Z,101666.16
2023-01-28T20:09:22.172Z,101659.45
2023-01-28T20:11:50.451Z,101662.84
2023-01-28T20:14:19.707Z,101668.45
2023-01-28T20:16:49.084Z,101664.33
2023-01-28T20:19:19.129Z,101666.16
2023-01-28T20:21:47.531Z,101665.21
2023-01-28T20:24:16.346Z,101671.34
2023-01-28T20:26:45.887Z,101670.20
2023-01-28T20:29:22.352Z,101660.11
2023-01-28T20:32:09.047Z,101657.26
2023-01-28T20:34:39.540Z,101657.48
2023-01-28T20:37:10.432Z,101650.97
2023-01-28T20:39:38.756Z,101655.98
2023-01-28T20:42:09.689Z,101657.16
2023-01-28T20:44:38.097Z,101645.77
2023-01-28T20:47:06.808Z,101648.05
2023-01-28T20:49:35.159Z,101640.89
2023-01-28T20:52:04.654Z,101642.11
2023-01-28T20:54:33.194Z,101625.98
2023-01-28T20:57:01.483Z,101631.16
2023-01-28T20:59:31.489Z,101624.60
2023-01-28T21:02:01.050Z,101624.83
2023-01-28T21:04:29.386Z,101623.23
2023-01-28T21:06:58.111Z,101618.42
2023-01-28T21:09:27.966Z,101617.13
2023-01-28T21:11:56.565Z,101609.81
2023-01-28T21:14:25.022Z,101609.86
2023-01-28T21:16:53.233Z,101609.55
2023-01-28T21:19:21.756Z,101607.36
2023-01-28T21:21:50.161Z,101611.34
2023-01-28T21:24:18.469Z,101621.29
2023-01-28T21:26:46.751Z,101621.76
2023-01-28T21:29:15.463Z,101612.64
2023-01-28T21:31:44.393Z,101612.48
2023-01-28T21:34:13.480Z,101605.92
2023-01-28T21:36:41.964Z,101592.60
2023-01-28T21:39:10.417Z,101595.85
2023-01-28T21:41:38.578Z,101602.69
2023-01-28T21:44:07.089Z,101596.79
2023-01-28T21:46:35.553Z,101591.56
2023-01-28T21:49:05.593Z,101591.23
2023-01-28T21:51:39.230Z,101600.64
2023-01-28T21:54:13.251Z,101588.02
2023-01-28T21:56:45.589Z,101584.63
2023-01-28T21:59:29.795Z,101594.66
2023-01-28T22:02:01.186Z,101588.83
2023-01-28T22:04:35.152Z,101576.61
2023-01-28T22:07:05.739Z,101573.83
2023-01-28T22:09:34.684Z,101572.45
2023-01-28T22:12:05.306Z,101570.48
2023-01-28T22:14:34.608Z,101561.31
2023-01-28T22:17:03.647Z,101550.65
2023-01-28T22:19:32.004Z,101549.95
2023-01-28T22:22:00.245Z,101557.44
2023-01-28T22:24:29.142Z,101545.31
2023-01-28T22:26:57.717Z,101542.06
2023-01-28T22:29:26.250Z,101528.74
2023-01-28T22:31:54.984Z,101525.44
2023-01-28T22:34:23.673Z,101527.36
2023-01-28T22:36:52.029Z,101527.11
2023-01-28T22:39:20.242Z,101533.82
2023-01-28T22:41:48.314Z,101522.20
2023-01-28T22:44:16.896Z,101523.64
2023-01-28T22:46:45.155Z,101520.70
2023-01-28T22:49:15.108Z,101531.74
2023-01-28T22:51:43.448Z,101527.56
2023-01-28T22:54:12.069Z,101519.68
2023-01-28T22:56:40.444Z,101510.45
2023-01-28T22:59:10.340Z,101506.46
2023-01-28T23:01:38.386Z,101499.11
2023-01-28T23:04:06.510Z,101491.49
2023-01-28T23:06:34.640Z,101481.36
2023-01-28T23:09:03.136Z,101479.63
2023-01-28T23:11:31.299Z,101478.44
2023-01-28T23:14:21.430Z,101476.60
2023-01-28T23:17:08.744Z,101463.23
2023-01-28T23:19:55.809Z,101449.88
2023-01-28T23:22:46.999Z,101446.48
2023-01-28T23:25:15.457Z,101439.45
2023-01-28T23:27:44.375Z,101440.51
2023-01-28T23:30:14.007Z,101435.84
2023-01-28T23:32:48.531Z,101435.29
2023-01-28T23:35:19.081Z,101436.77
2023-01-28T23:37:48.161Z,101430.77
2023-01-28T23:40:16.955Z,101420.20
2023-01-28T23:42:49.678Z,101420.29
2023-01-28T23:45:18.997Z,101421.17
2023-01-28T23:47:47.857Z,101416.17
2023-01-28T23:50:16.578Z,101417.67
2023-01-28T23:52:45.647Z,101420.17
2023-01-28T23:55:13.880Z,101421.35
2023-01-28T23:57:42.277Z,101423.92
